Time;durP1;ratioP1;P1;durP2;ratioP2;P2;SDS_P1;SDS_P2;PMS_P1;PMS_P2;Temp;Humidity;BMP_temperature;BMP_pressure;BME280_temperature;BME280_humidity;BME280_pressure;Samples;Min_cycle;Max_cycle;Signal;HPM_P1;HPM_P2
2024/02/04 00:00:44;;;;;;;5.43;4.25;;;5.90;99.90;;;;;;5030334;28;20425;-78
2024/02/04 00:03:10;;;;;;;6.68;4.65;;;5.90;99.90;;;;;;5030426;28;20151;-76
2024/02/04 00:05:35;;;;;;;4.22;3.83;;;5.90;99.90;;;;;;5030039;28;20100;-77
2024/02/04 00:08:02;;;;;;;4.63;3.53;;;5.90;99.90;;;;;;5029208;28;20457;-78
2024/02/04 00:10:28;;;;;;;4.40;3.40;;;5.90;99.90;;;;;;5027336;28;20029;-78
2024/02/04 00:12:54;;;;;;;3.97;3.30;;;5.90;99.90;;;;;;5030019;28;20067;-78
2024/02/04 00:15:20;;;;;;;3.97;3.47;;;5.90;99.90;;;;;;5030099;28;20024;-77
2024/02/04 00:17:45;;;;;;;5.50;4.05;;;5.90;99.90;;;;;;5029011;28;20043;-76
2024/02/04 00:20:11;;;;;;;7.18;6.00;;;5.90;99.90;;;;;;5030017;28;20014;-78
2024/02/04 00:22:37;;;;;;;10.95;8.32;;;5.90;99.90;;;;;;5029972;28;20017;-78
2024/02/04 00:25:04;;;;;;;11.95;8.32;;;5.90;99.90;;;;;;5028594;28;20096;-78
2024/02/04 00:27:34;;;;;;;15.43;9.65;;;5.80;99.90;;;;;;5028575;28;20053;-78
2024/02/04 00:30:00;;;;;;;20.10;11.68;;;5.80;99.90;;;;;;5029886;28;20049;-78
2024/02/04 00:32:26;;;;;;;15.90;10.75;;;5.80;99.90;;;;;;5029577;28;20450;-78
2024/02/04 00:34:53;;;;;;;16.20;10.63;;;5.80;99.90;;;;;;5029923;28;20040;-77
2024/02/04 00:37:19;;;;;;;15.77;11.07;;;5.80;99.90;;;;;;5028649;28;20453;-78
2024/02/04 00:39:45;;;;;;;12.13;9.10;;;5.80;99.90;;;;;;5029517;28;20424;-77
2024/02/04 00:42:10;;;;;;;13.65;10.63;;;5.80;99.90;;;;;;5028819;28;20057;-78
2024/02/04 00:44:36;;;;;;;17.75;10.32;;;5.80;99.90;;;;;;5029450;28;20029;-77
2024/02/04 00:47:02;;;;;;;13.35;9.43;;;5.80;99.90;;;;;;5029859;28;20022;-77
2024/02/04 00:49:28;;;;;;;15.95;8.75;;;5.70;99.90;;;;;;5029561;28;20028;-78
2024/02/04 00:51:54;;;;;;;11.82;7.80;;;5.80;99.90;;;;;;5029725;28;20104;-78
2024/02/04 00:54:19;;;;;;;15.68;8.32;;;5.70;99.90;;;;;;5029394;28;20018;-78
2024/02/04 00:56:45;;;;;;;9.35;7.32;;;5.80;99.90;;;;;;5030000;28;20025;-78
2024/02/04 00:59:12;;;;;;;8.60;6.97;;;5.80;99.90;;;;;;5029591;28;20021;-78
2024/02/04 01:01:38;;;;;;;7.60;5.78;;;5.80;99.90;;;;;;5028795;28;20021;-78
2024/02/04 01:04:03;;;;;;;7.65;5.55;;;5.80;99.90;;;;;;5029491;28;20395;-78
2024/02/04 01:06:29;;;;;;;7.78;5.68;;;5.80;99.90;;;;;;5032918;28;20026;-78
2024/02/04 01:08:56;;;;;;;9.18;5.75;;;5.80;99.90;;;;;;5032717;28;20127;-78
2024/02/04 01:11:22;;;;;;;6.70;5.50;;;5.80;99.90;;;;;;5032816;28;20093;-78
2024/02/04 01:13:48;;;;;;;8.15;5.72;;;5.80;99.90;;;;;;5032709;28;20104;-78
2024/02/04 01:16:13;;;;;;;7.32;5.25;;;5.70;99.90;;;;;;5032784;28;20021;-78
2024/02/04 01:18:39;;;;;;;6.95;4.80;;;5.80;99.90;;;;;;5031420;28;20029;-77
2024/02/04 01:21:05;;;;;;;4.97;4.18;;;5.70;99.90;;;;;;5031595;28;20086;-77
2024/02/04 01:23:31;;;;;;;5.75;4.93;;;5.70;99.90;;;;;;5032190;28;20037;-78
2024/02/04 01:25:56;;;;;;;6.78;5.63;;;5.70;99.90;;;;;;5031529;28;20068;-78
2024/02/04 01:28:22;;;;;;;8.43;5.90;;;5.70;99.90;;;;;;5032472;28;20078;-76
2024/02/04 01:30:48;;;;;;;7.50;5.85;;;5.70;99.90;;;;;;5032670;28;20490;-76
2024/02/04 01:33:13;;;;;;;10.02;8.00;;;5.70;99.90;;;;;;5031238;28;20051;-78
2024/02/04 01:35:39;;;;;;;10.32;7.03;;;5.70;99.90;;;;;;5031172;28;20040;-78
2024/02/04 01:38:05;;;;;;;9.98;7.03;;;5.70;99.90;;;;;;5031146;28;20030;-78
2024/02/04 01:40:30;;;;;;;9.07;6.57;;;5.70;99.90;;;;;;5032230;28;20433;-78
2024/02/04 01:42:56;;;;;;;10.30;7.50;;;5.60;99.90;;;;;;5032626;28;20500;-77
2024/02/04 01:45:22;;;;;;;11.57;7.50;;;5.70;99.90;;;;;;5032406;28;20021;-77
2024/02/04 01:47:49;;;;;;;8.75;6.95;;;5.60;99.90;;;;;;5032187;28;20022;-78
2024/02/04 01:50:15;;;;;;;8.90;6.80;;;5.60;99.90;;;;;;5032474;28;20042;-78
2024/02/04 01:52:43;;;;;;;8.40;6.55;;;5.60;99.90;;;;;;5032041;28;20426;-78
2024/02/04 01:55:09;;;;;;;9.25;6.93;;;5.60;99.90;;;;;;5032453;28;20155;-78
2024/02/04 01:57:35;;;;;;;9.13;7.05;;;5.60;99.90;;;;;;5032159;28;20108;-78
2024/02/04 02:00:02;;;;;;;10.95;6.72;;;5.60;99.90;;;;;;5032408;28;20022;-78
2024/02/04 02:02:28;;;;;;;7.72;5.40;;;5.60;99.90;;;;;;5031437;28;20032;-79
2024/02/04 02:04:54;;;;;;;4.90;4.40;;;5.60;99.90;;;;;;5030798;28;20037;-78
2024/02/04 02:07:21;;;;;;;2.88;2.55;;;5.50;99.90;;;;;;5032065;28;20029;-78
2024/02/04 02:09:47;;;;;;;3.22;2.20;;;5.50;99.90;;;;;;5030641;28;20026;-78
2024/02/04 02:12:24;;;;;;;2.00;1.77;;;5.50;99.90;;;;;;5019257;28;20030;-78
2024/02/04 02:15:30;;;;;;;2.58;1.70;;;5.50;99.90;;;;;;5031622;28;20022;-78
2024/02/04 02:18:26;;;;;;;1.65;1.52;;;5.50;99.90;;;;;;5000223;28;20030;-78
2024/02/04 02:21:17;;;;;;;2.58;1.55;;;5.40;99.90;;;;;;5018770;28;20116;-79
2024/02/04 02:24:04;;;;;;;1.50;1.27;;;5.50;99.90;;;;;;5029867;28;20033;-79
2024/02/04 02:26:32;;;;;;;1.67;1.58;;;5.50;99.90;;;;;;5031429;28;20065;-78
2024/02/04 02:28:58;;;;;;;1.63;1.52;;;5.40;99.90;;;;;;5031949;28;20022;-78
2024/02/04 02:31:24;;;;;;;2.90;1.83;;;5.40;99.90;;;;;;5030109;28;20390;-79
2024/02/04 02:33:50;;;;;;;1.48;1.25;;;5.40;99.90;;;;;;5030479;28;20033;-78
2024/02/04 02:36:22;;;;;;;3.03;1.83;;;5.40;99.90;;;;;;5029989;28;20133;-79
2024/02/04 02:38:58;;;;;;;4.70;1.80;;;5.40;99.90;;;;;;5023456;28;20018;-79
2024/02/04 02:41:27;;;;;;;2.53;1.35;;;5.50;99.90;;;;;;5017122;28;20563;-79
2024/02/04 02:43:54;;;;;;;2.25;2.05;;;5.60;99.90;;;;;;5031070;28;20420;-78
2024/02/04 02:46:20;;;;;;;1.90;1.40;;;5.60;99.90;;;;;;5023470;28;20089;-78
2024/02/04 02:48:46;;;;;;;1.95;1.42;;;5.60;99.90;;;;;;5029930;28;20025;-77
2024/02/04 02:51:11;;;;;;;1.33;1.20;;;5.60;99.90;;;;;;5029816;28;20010;-77
2024/02/04 02:53:37;;;;;;;1.30;1.25;;;5.70;99.90;;;;;;5031027;28;20077;-77
2024/02/04 02:56:03;;;;;;;1.65;1.55;;;5.70;99.90;;;;;;5031181;28;20024;-77
2024/02/04 02:58:29;;;;;;;1.80;1.70;;;5.70;99.90;;;;;;5029611;28;20116;-76
2024/02/04 03:00:54;;;;;;;2.05;1.88;;;5.70;99.90;;;;;;5029982;28;20022;-76
2024/02/04 03:03:20;;;;;;;2.08;1.85;;;5.70;99.90;;;;;;5030877;28;20021;-75
2024/02/04 03:05:45;;;;;;;2.53;2.33;;;5.70;99.90;;;;;;5031046;28;20356;-76
2024/02/04 03:08:11;;;;;;;3.58;2.10;;;5.70;99.90;;;;;;5029905;28;20032;-75
2024/02/04 03:10:37;;;;;;;2.38;2.00;;;5.70;99.90;;;;;;5029980;28;20069;-77
2024/02/04 03:13:02;;;;;;;3.50;2.25;;;5.60;99.90;;;;;;5030797;28;20120;-74
2024/02/04 03:15:28;;;;;;;3.33;2.15;;;5.50;99.90;;;;;;5031252;28;20060;-76
2024/02/04 03:17:54;;;;;;;2.97;2.40;;;5.60;99.90;;;;;;5029671;28;20051;-75
2024/02/04 03:20:19;;;;;;;2.55;1.95;;;5.50;99.90;;;;;;5029754;28;20534;-76
2024/02/04 03:22:46;;;;;;;2.92;1.92;;;5.50;99.90;;;;;;5030910;28;20463;-76
2024/02/04 03:25:11;;;;;;;4.78;1.60;;;5.50;99.90;;;;;;5030981;28;20082;-77
2024/02/04 03:27:39;;;;;;;2.05;1.83;;;5.40;99.90;;;;;;5017847;28;20026;-77
2024/02/04 03:30:05;;;;;;;2.30;1.63;;;5.40;99.90;;;;;;5030624;28;20045;-75
2024/02/04 03:32:33;;;;;;;2.53;1.52;;;5.40;99.90;;;;;;5030857;28;20434;-75
2024/02/04 03:35:00;;;;;;;1.95;1.58;;;5.40;99.90;;;;;;5029128;28;20098;-75
2024/02/04 03:37:26;;;;;;;2.15;1.50;;;5.40;99.90;;;;;;5030941;28;20053;-76
2024/02/04 03:39:51;;;;;;;2.30;1.63;;;5.40;99.90;;;;;;5030484;28;20057;-76
2024/02/04 03:42:18;;;;;;;2.75;1.33;;;5.40;99.90;;;;;;5030813;28;20052;-77
2024/02/04 03:44:45;;;;;;;1.88;1.30;;;5.40;99.90;;;;;;5029402;28;20100;-77
2024/02/04 03:47:10;;;;;;;1.52;1.30;;;5.40;99.90;;;;;;5018624;28;20022;-77
2024/02/04 03:49:36;;;;;;;1.98;1.77;;;5.40;99.90;;;;;;5029021;28;20029;-77
2024/02/04 03:52:02;;;;;;;3.17;1.88;;;5.40;99.90;;;;;;5029152;28;20036;-76
2024/02/04 03:54:27;;;;;;;2.33;1.42;;;5.30;99.90;;;;;;5029070;28;20026;-75
2024/02/04 03:56:53;;;;;;;2.58;1.42;;;5.30;99.90;;;;;;5029371;28;20021;-77
2024/02/04 03:59:19;;;;;;;1.55;1.45;;;5.40;99.90;;;;;;5030264;28;20060;-75
2024/02/04 04:01:49;;;;;;;3.03;1.10;;;5.30;99.90;;;;;;5028736;28;20017;-76
2024/02/04 04:04:15;;;;;;;2.03;1.45;;;5.30;99.90;;;;;;5023211;28;20032;-76
2024/02/04 04:06:42;;;;;;;3.13;1.50;;;5.20;99.90;;;;;;5030263;28;20112;-76
2024/02/04 04:09:07;;;;;;;5.13;1.75;;;5.20;99.90;;;;;;5030311;28;20025;-76
2024/02/04 04:11:33;;;;;;;3.83;1.38;;;5.30;99.90;;;;;;5030119;28;20037;-76
2024/02/04 04:13:59;;;;;;;2.20;1.40;;;5.30;99.90;;;;;;5028905;28;20522;-79
2024/02/04 04:16:24;;;;;;;2.67;1.58;;;5.20;99.90;;;;;;5030111;28;20048;-75
2024/02/04 04:18:50;;;;;;;3.88;1.30;;;5.20;99.90;;;;;;5030195;28;20021;-75
2024/02/04 04:21:16;;;;;;;1.63;1.52;;;5.30;99.90;;;;;;5028783;28;20020;-76
2024/02/04 04:23:42;;;;;;;1.30;1.20;;;5.20;99.90;;;;;;5029971;28;20026;-75
2024/02/04 04:26:07;;;;;;;2.53;1.70;;;5.30;99.90;;;;;;5030039;28;20158;-77
2024/02/04 04:28:33;;;;;;;3.22;1.60;;;5.30;99.90;;;;;;5030011;28;20057;-77
2024/02/04 04:30:59;;;;;;;2.80;1.60;;;5.20;99.90;;;;;;5028576;28;20014;-77
2024/02/04 04:33:24;;;;;;;1.80;1.30;;;5.30;99.90;;;;;;5028579;28;20143;-76
2024/02/04 04:35:50;;;;;;;2.80;1.50;;;5.30;99.90;;;;;;5029855;28;20045;-77
2024/02/04 04:38:16;;;;;;;4.30;2.75;;;5.20;99.90;;;;;;5028665;28;20118;-77
2024/02/04 04:40:41;;;;;;;1.63;1.35;;;5.20;99.90;;;;;;5027760;28;20090;-77
2024/02/04 04:43:07;;;;;;;8.05;2.40;;;5.20;99.90;;;;;;5028498;28;20066;-77
2024/02/04 04:45:33;;;;;;;1.70;1.60;;;5.20;99.90;;;;;;5029617;28;20113;-78
2024/02/04 04:47:58;;;;;;;2.17;1.60;;;5.20;99.90;;;;;;5029798;28;20078;-76
2024/02/04 04:50:24;;;;;;;1.83;1.40;;;5.20;99.90;;;;;;5028287;28;20022;-75
2024/02/04 04:52:49;;;;;;;3.00;2.80;;;5.30;99.90;;;;;;5028367;28;20025;-77
2024/02/04 04:55:15;;;;;;;2.90;1.63;;;5.20;99.90;;;;;;5029372;28;20022;-76
2024/02/04 04:57:41;;;;;;;2.90;1.65;;;5.20;99.90;;;;;;5028238;28;20060;-75
2024/02/04 05:00:09;;;;;;;4.28;1.40;;;5.20;99.90;;;;;;5029454;28;20102;-75
2024/02/04 05:02:35;;;;;;;3.08;1.83;;;5.20;99.90;;;;;;5029361;28;20022;-75
2024/02/04 05:05:01;;;;;;;3.15;1.83;;;5.20;99.90;;;;;;5029683;28;20013;-76
2024/02/04 05:07:27;;;;;;;4.38;1.95;;;5.20;99.90;;;;;;5029340;28;20022;-76
2024/02/04 05:09:53;;;;;;;3.60;1.70;;;5.20;99.90;;;;;;5029727;28;20432;-77
2024/02/04 05:12:18;;;;;;;4.30;1.50;;;5.20;99.90;;;;;;5028126;28;20120;-75
2024/02/04 05:14:44;;;;;;;2.80;2.20;;;5.20;99.90;;;;;;5028082;28;20018;-77
2024/02/04 05:17:10;;;;;;;7.05;2.25;;;5.10;99.90;;;;;;5029296;28;20094;-75
2024/02/04 05:19:35;;;;;;;2.58;2.25;;;5.10;99.90;;;;;;5016695;28;20025;-74
2024/02/04 05:22:02;;;;;;;8.40;3.35;;;5.10;99.90;;;;;;5029118;28;20477;-75
2024/02/04 05:24:28;;;;;;;4.90;2.20;;;5.00;99.90;;;;;;5029315;28;20387;-76
2024/02/04 05:26:54;;;;;;;2.92;2.15;;;5.00;99.90;;;;;;5027769;28;20026;-74
2024/02/04 05:29:20;;;;;;;3.67;1.95;;;5.00;99.90;;;;;;5028094;28;20145;-76
2024/02/04 05:31:45;;;;;;;3.92;2.45;;;5.00;99.90;;;;;;5029061;28;20029;-74
2024/02/04 05:34:12;;;;;;;3.88;2.08;;;5.00;99.90;;;;;;5028063;28;20033;-76
2024/02/04 05:36:38;;;;;;;4.45;2.40;;;5.10;99.90;;;;;;5027557;28;20017;-75
2024/02/04 05:39:11;;;;;;;5.05;3.33;;;5.10;99.90;;;;;;5028041;28;20018;-76
2024/02/04 05:41:37;;;;;;;4.20;3.00;;;5.10;99.90;;;;;;5027355;28;20065;-76
2024/02/04 05:44:03;;;;;;;3.97;2.97;;;5.10;99.90;;;;;;5027967;28;20381;-75
2024/02/04 05:46:29;;;;;;;5.00;3.15;;;5.10;99.90;;;;;;5028686;28;20018;-77
2024/02/04 05:48:54;;;;;;;3.05;2.67;;;5.10;99.90;;;;;;5027971;28;20025;-76
2024/02/04 05:51:21;;;;;;;4.05;2.80;;;5.10;99.90;;;;;;5028441;28;20056;-77
2024/02/04 05:53:46;;;;;;;6.38;3.05;;;5.10;99.90;;;;;;5030950;28;20057;-74
2024/02/04 05:56:12;;;;;;;6.30;3.53;;;5.10;99.90;;;;;;5030692;28;20057;-75
2024/02/04 05:58:38;;;;;;;3.50;2.85;;;5.10;99.90;;;;;;5032304;28;20018;-76
2024/02/04 06:01:03;;;;;;;3.90;2.78;;;5.00;99.90;;;;;;5032128;28;20064;-76
2024/02/04 06:03:29;;;;;;;4.00;2.28;;;5.00;99.90;;;;;;5032178;28;20022;-77
2024/02/04 06:05:55;;;;;;;2.83;2.05;;;5.00;99.90;;;;;;5032103;28;20125;-76
2024/02/04 06:08:20;;;;;;;2.67;2.47;;;5.00;99.90;;;;;;5030845;28;20026;-77
2024/02/04 06:10:46;;;;;;;2.80;1.70;;;4.90;99.90;;;;;;5031969;28;20025;-77
2024/02/04 06:13:11;;;;;;;3.08;2.33;;;4.90;99.90;;;;;;5030844;28;20490;-77
2024/02/04 06:15:37;;;;;;;3.53;1.98;;;4.90;99.90;;;;;;5030438;28;20059;-76
2024/02/04 06:18:03;;;;;;;2.78;2.08;;;4.90;99.90;;;;;;5032058;28;20387;-77
2024/02/04 06:20:29;;;;;;;1.58;1.45;;;4.90;99.90;;;;;;5031787;28;20018;-75
2024/02/04 06:22:54;;;;;;;6.57;2.35;;;4.80;99.90;;;;;;5030867;28;20025;-76
2024/02/04 06:25:20;;;;;;;1.83;1.30;;;4.90;99.90;;;;;;5031609;28;20041;-76
2024/02/04 06:27:46;;;;;;;3.22;1.30;;;5.00;99.90;;;;;;5031771;28;20072;-76
2024/02/04 06:30:12;;;;;;;2.63;1.20;;;5.00;99.90;;;;;;5031699;28;20018;-76
2024/02/04 06:32:37;;;;;;;2.83;1.20;;;5.10;99.90;;;;;;5031663;28;20029;-77
2024/02/04 06:35:03;;;;;;;2.05;1.20;;;5.10;99.90;;;;;;5031640;28;20517;-76
2024/02/04 06:37:29;;;;;;;3.17;1.38;;;5.20;99.90;;;;;;5030181;28;20026;-77
2024/02/04 06:39:55;;;;;;;4.00;3.63;;;5.20;99.90;;;;;;5031520;28;20562;-77
2024/02/04 06:42:20;;;;;;;3.63;1.40;;;5.20;99.90;;;;;;5030451;28;20064;-76
2024/02/04 06:44:46;;;;;;;3.40;1.40;;;5.20;99.90;;;;;;5030111;28;20375;-77
2024/02/04 06:47:13;;;;;;;2.28;1.75;;;5.20;99.90;;;;;;5031477;28;20029;-76
2024/02/04 06:49:43;;;;;;;2.58;1.30;;;5.20;99.90;;;;;;5030154;28;20021;-76
2024/02/04 06:52:09;;;;;;;4.20;1.50;;;5.30;99.90;;;;;;5030156;28;20030;-77
2024/02/04 06:54:34;;;;;;;4.03;1.98;;;5.20;99.90;;;;;;5030299;28;20170;-77
2024/02/04 06:57:00;;;;;;;4.32;1.25;;;5.20;99.90;;;;;;5030143;28;20526;-75
2024/02/04 06:59:26;;;;;;;5.07;1.75;;;5.10;99.90;;;;;;5030002;28;20026;-76
2024/02/04 07:01:53;;;;;;;2.40;1.52;;;5.10;99.90;;;;;;5031143;28;20101;-75
2024/02/04 07:04:21;;;;;;;3.03;1.52;;;5.10;99.90;;;;;;5030759;28;20017;-76
2024/02/04 07:06:47;;;;;;;2.72;1.45;;;5.00;99.90;;;;;;5030107;28;20025;-75
2024/02/04 07:09:13;;;;;;;2.50;1.30;;;5.10;99.90;;;;;;5031155;28;20104;-77
2024/02/04 07:11:38;;;;;;;4.68;1.55;;;5.10;99.90;;;;;;5030327;28;20050;-76
2024/02/04 07:14:06;;;;;;;2.90;1.40;;;5.10;99.90;;;;;;5030936;28;20034;-76
2024/02/04 07:16:31;;;;;;;4.88;2.17;;;5.00;99.90;;;;;;5030955;28;20041;-76
2024/02/04 07:18:57;;;;;;;4.80;1.45;;;5.10;99.90;;;;;;5029740;28;20045;-76
2024/02/04 07:21:22;;;;;;;3.40;1.88;;;5.00;99.90;;;;;;5029599;28;20021;-75
2024/02/04 07:23:48;;;;;;;2.53;1.30;;;5.00;99.90;;;;;;5029346;28;20025;-76
2024/02/04 07:26:14;;;;;;;2.78;1.45;;;5.10;99.90;;;;;;5023951;28;20083;-76
2024/02/04 07:28:39;;;;;;;3.58;1.50;;;5.10;99.90;;;;;;5024361;28;20057;-76
2024/02/04 07:31:05;;;;;;;3.13;1.40;;;5.00;99.90;;;;;;5030633;28;20017;-76
2024/02/04 07:33:31;;;;;;;3.17;1.40;;;5.10;99.90;;;;;;5030310;28;20502;-76
2024/02/04 07:35:56;;;;;;;3.13;1.40;;;5.00;99.90;;;;;;5030639;28;20527;-76
2024/02/04 07:38:22;;;;;;;1.95;1.75;;;5.00;99.90;;;;;;5029794;28;20025;-76
2024/02/04 07:40:48;;;;;;;4.20;1.80;;;5.00;99.90;;;;;;5028236;28;20045;-75
2024/02/04 07:43:13;;;;;;;11.32;3.15;;;5.00;99.90;;;;;;5028124;28;20021;-76
2024/02/04 07:45:39;;;;;;;4.45;1.70;;;5.00;99.90;;;;;;5019301;28;20037;-75
2024/02/04 07:48:05;;;;;;;6.68;1.85;;;5.00;99.90;;;;;;5025216;28;20098;-76
2024/02/04 07:50:30;;;;;;;3.38;1.95;;;5.00;99.90;;;;;;5027675;28;21529;-76
2024/02/04 07:52:56;;;;;;;4.10;1.88;;;5.00;99.90;;;;;;5029650;28;20036;-75
2024/02/04 07:55:22;;;;;;;2.78;1.60;;;5.00;99.90;;;;;;5030179;28;20026;-76
2024/02/04 07:57:47;;;;;;;5.28;2.13;;;5.00;99.90;;;;;;5029689;28;20022;-76
2024/02/04 08:00:13;;;;;;;5.22;2.03;;;5.10;99.90;;;;;;5027794;28;20025;-76
2024/02/04 08:02:39;;;;;;;7.53;1.98;;;5.10;99.90;;;;;;5025536;28;20030;-75
2024/02/04 08:05:05;;;;;;;5.88;1.70;;;5.10;99.90;;;;;;5022412;28;20049;-75
2024/02/04 08:07:31;;;;;;;3.58;1.67;;;5.10;99.90;;;;;;5024210;28;20064;-75
2024/02/04 08:09:57;;;;;;;5.45;1.65;;;5.10;99.90;;;;;;5029955;28;20049;-76
2024/02/04 08:12:23;;;;;;;4.53;1.83;;;5.10;99.90;;;;;;5029345;28;20029;-75
2024/02/04 08:14:49;;;;;;;11.88;2.42;;;5.10;99.90;;;;;;5018766;28;20439;-75
2024/02/04 08:17:15;;;;;;;7.22;1.55;;;5.20;99.90;;;;;;5028342;28;20029;-75
2024/02/04 08:19:41;;;;;;;4.07;1.75;;;5.20;99.90;;;;;;5028179;28;20523;-74
2024/02/04 08:22:07;;;;;;;3.03;1.52;;;5.30;99.90;;;;;;5028115;28;20394;-76
2024/02/04 08:24:33;;;;;;;3.90;1.40;;;5.30;99.90;;;;;;5027841;28;20022;-75
2024/02/04 08:26:59;;;;;;;5.97;2.05;;;5.30;99.90;;;;;;5028601;28;20043;-75
2024/02/04 08:29:25;;;;;;;5.63;1.70;;;5.40;99.90;;;;;;5028292;28;20021;-75
2024/02/04 08:31:53;;;;;;;4.57;1.98;;;5.40;99.90;;;;;;5029306;28;20026;-75
2024/02/04 08:34:20;;;;;;;6.57;1.98;;;5.50;99.90;;;;;;5029815;28;20021;-74
2024/02/04 08:36:46;;;;;;;3.95;1.58;;;5.40;99.90;;;;;;5028556;28;20470;-75
2024/02/04 08:39:11;;;;;;;6.55;1.58;;;5.50;99.90;;;;;;5029762;28;20021;-75
2024/02/04 08:41:37;;;;;;;4.78;2.03;;;5.50;99.90;;;;;;5029259;28;20045;-74
2024/02/04 08:44:04;;;;;;;3.95;1.40;;;5.50;99.90;;;;;;5028794;28;20045;-75
2024/02/04 08:46:30;;;;;;;10.90;2.60;;;5.60;99.90;;;;;;5028112;28;20033;-75
2024/02/04 08:48:55;;;;;;;3.72;1.70;;;5.60;99.90;;;;;;5028090;28;20420;-74
2024/02/04 08:51:21;;;;;;;5.78;1.90;;;5.60;99.90;;;;;;5018353;28;20037;-75
2024/02/04 08:53:47;;;;;;;6.55;2.28;;;5.60;99.90;;;;;;5028155;28;20049;-74
2024/02/04 08:56:13;;;;;;;9.38;2.85;;;5.60;99.90;;;;;;5029292;28;20030;-74
2024/02/04 08:58:39;;;;;;;5.35;2.60;;;5.60;99.90;;;;;;5025600;28;20669;-76
2024/02/04 09:01:05;;;;;;;2.65;1.42;;;5.60;99.90;;;;;;5027513;28;20037;-76
2024/02/04 09:03:31;;;;;;;5.63;2.40;;;5.60;99.90;;;;;;5028965;28;20021;-75
2024/02/04 09:05:57;;;;;;;7.28;2.28;;;5.70;99.90;;;;;;5024481;28;20022;-76
2024/02/04 09:08:23;;;;;;;4.40;2.40;;;5.70;99.90;;;;;;5026848;28;20082;-76
2024/02/04 09:10:48;;;;;;;13.52;3.88;;;5.80;99.90;;;;;;5027732;28;20424;-74
2024/02/04 09:13:14;;;;;;;5.28;2.10;;;5.80;99.90;;;;;;5019347;28;20037;-75
2024/02/04 09:15:40;;;;;;;3.28;1.80;;;5.80;99.90;;;;;;5023097;28;20454;-74
2024/02/04 09:18:05;;;;;;;4.65;2.30;;;5.80;99.90;;;;;;5025778;28;20057;-75
2024/02/04 09:20:31;;;;;;;3.58;2.10;;;5.80;99.90;;;;;;5026775;28;20116;-75
2024/02/04 09:22:56;;;;;;;5.35;2.30;;;5.80;99.90;;;;;;5027098;28;20505;-76
2024/02/04 09:25:24;;;;;;;7.53;2.22;;;6.00;99.90;;;;;;5028394;27;20034;-76
2024/02/04 09:27:49;;;;;;;4.28;2.10;;;6.10;99.90;;;;;;5022315;28;20017;-75
2024/02/04 09:30:16;;;;;;;2.72;1.83;;;6.10;99.90;;;;;;5030447;27;20120;-76
2024/02/04 09:32:42;;;;;;;4.35;2.20;;;6.20;99.90;;;;;;5016975;28;20056;-77
2024/02/04 09:35:09;;;;;;;2.45;1.70;;;6.30;99.90;;;;;;5030514;27;20018;-76
2024/02/04 09:37:35;;;;;;;6.95;1.95;;;6.30;99.90;;;;;;5030707;28;20497;-77
2024/02/04 09:40:00;;;;;;;6.00;2.22;;;6.20;99.90;;;;;;5021695;27;20021;-78
2024/02/04 09:42:27;;;;;;;2.78;2.03;;;6.10;99.90;;;;;;5020736;28;20049;-76
2024/02/04 09:44:53;;;;;;;10.60;5.30;;;6.10;99.90;;;;;;5018875;28;20059;-76
2024/02/04 09:47:20;;;;;;;18.52;9.32;;;6.00;99.90;;;;;;5029819;27;20112;-76
2024/02/04 09:49:46;;;;;;;19.98;12.50;;;6.00;99.90;;;;;;5029903;28;20026;-77
2024/02/04 09:52:16;;;;;;;5.63;3.30;;;6.00;99.90;;;;;;5029229;28;20112;-77
2024/02/04 09:54:49;;;;;;;4.82;2.30;;;6.10;99.90;;;;;;5031260;28;20049;-77
2024/02/04 09:57:16;;;;;;;8.50;2.15;;;6.10;99.00;;;;;;5029765;28;20040;-77
2024/02/04 09:59:43;;;;;;;4.93;1.88;;;6.20;96.30;;;;;;5028725;28;20030;-78
2024/02/04 10:02:10;;;;;;;3.80;1.60;;;6.20;95.60;;;;;;5030790;28;20548;-78
2024/02/04 10:04:36;;;;;;;5.38;1.75;;;6.30;96.20;;;;;;5029971;28;20059;-78
2024/02/04 10:07:03;;;;;;;3.35;1.60;;;6.30;96.00;;;;;;5029988;28;20018;-80
2024/02/04 10:09:30;;;;;;;5.22;1.85;;;6.50;96.30;;;;;;5030465;28;20029;-76
2024/02/04 10:11:56;;;;;;;6.63;3.60;;;6.50;91.80;;;;;;5030216;28;20042;-76
2024/02/04 10:14:22;;;;;;;2.90;1.35;;;6.50;91.30;;;;;;5031501;28;20075;-76
2024/02/04 10:16:47;;;;;;;4.72;1.70;;;6.50;89.80;;;;;;5030550;28;20013;-77
2024/02/04 10:19:13;;;;;;;6.72;2.78;;;6.60;92.80;;;;;;5030903;28;20394;-76
2024/02/04 10:21:39;;;;;;;11.73;4.53;;;6.70;92.10;;;;;;5028913;28;20062;-77
2024/02/04 10:24:08;;;;;;;2.35;2.15;;;6.80;92.20;;;;;;5029497;28;20104;-77
2024/02/04 10:26:36;;;;;;;4.63;1.48;;;6.80;88.90;;;;;;5028276;28;20383;-76
2024/02/04 10:29:03;;;;;;;4.63;1.60;;;6.80;86.20;;;;;;5028007;28;20063;-77
2024/02/04 10:31:29;;;;;;;3.58;1.35;;;6.90;87.70;;;;;;5030896;28;20074;-77
2024/02/04 10:33:56;;;;;;;6.63;3.03;;;6.90;87.50;;;;;;5046222;28;20436;-77
2024/02/04 10:36:21;;;;;;;6.78;2.97;;;6.90;85.90;;;;;;5029842;28;20120;-77
2024/02/04 10:38:48;;;;;;;3.10;1.50;;;6.80;84.20;;;;;;5030604;28;20109;-77
2024/02/04 10:41:16;;;;;;;2.97;1.30;;;6.90;85.30;;;;;;5018967;28;20165;-78
2024/02/04 10:43:43;;;;;;;3.70;1.55;;;6.90;85.60;;;;;;5029306;28;20091;-77
2024/02/04 10:46:14;;;;;;;5.03;1.27;;;6.90;84.90;;;;;;5024241;28;20040;-77
2024/02/04 10:48:44;;;;;;;2.25;1.50;;;6.90;85.50;;;;;;5023766;27;20046;-76
2024/02/04 10:51:14;;;;;;;1.77;1.25;;;6.80;83.70;;;;;;5027770;28;20033;-77
2024/02/04 10:53:43;;;;;;;4.22;1.80;;;6.80;83.50;;;;;;5027190;28;20049;-77
2024/02/04 10:56:29;;;;;;;3.35;1.35;;;6.80;83.30;;;;;;5029772;28;20026;-77
2024/02/04 10:58:56;;;;;;;3.90;1.20;;;6.70;81.90;;;;;;5019926;27;20067;-76
2024/02/04 11:01:23;;;;;;;3.13;1.90;;;6.70;82.50;;;;;;5027642;27;20021;-77
2024/02/04 11:03:51;;;;;;;4.57;1.55;;;6.60;82.20;;;;;;5028718;27;20041;-77
2024/02/04 11:06:18;;;;;;;3.15;1.70;;;6.70;83.70;;;;;;5027809;28;20055;-76
2024/02/04 11:08:44;;;;;;;4.75;2.40;;;6.70;84.30;;;;;;5028821;27;20044;-77
2024/02/04 11:11:10;;;;;;;5.03;2.28;;;6.70;85.50;;;;;;5023636;28;20018;-78
2024/02/04 11:13:36;;;;;;;4.00;2.17;;;6.70;88.50;;;;;;5026684;27;20059;-76
2024/02/04 11:16:12;;;;;;;6.28;2.40;;;6.70;88.30;;;;;;5027946;28;20049;-78
2024/02/04 11:19:08;;;;;;;4.63;2.42;;;6.70;91.00;;;;;;5026590;28;20026;-76
2024/02/04 11:21:33;;;;;;;6.32;2.63;;;6.70;93.40;;;;;;5023754;28;20029;-77
2024/02/04 11:24:08;;;;;;;4.65;3.00;;;6.70;95.20;;;;;;5027668;28;20037;-76
2024/02/04 11:26:34;;;;;;;5.90;2.58;;;6.80;95.80;;;;;;5026057;28;20025;-76
2024/02/04 11:29:01;;;;;;;5.72;2.45;;;6.70;94.30;;;;;;5027575;27;20038;-77
2024/02/04 11:31:28;;;;;;;12.77;3.58;;;6.70;94.30;;;;;;5025036;28;20017;-76
2024/02/04 11:33:54;;;;;;;5.78;2.78;;;6.70;93.60;;;;;;5024958;27;20121;-76
2024/02/04 11:36:24;;;;;;;9.45;3.72;;;6.70;91.20;;;;;;5026396;28;20167;-76
2024/02/04 11:38:51;;;;;;;7.15;2.75;;;6.60;91.60;;;;;;5017866;28;20032;-76
2024/02/04 11:41:27;;;;;;;9.23;3.15;;;6.60;92.50;;;;;;5028538;28;20053;-76
2024/02/04 11:43:59;;;;;;;5.05;2.58;;;6.60;90.60;;;;;;5027145;27;20025;-76
2024/02/04 11:46:29;;;;;;;3.30;2.13;;;6.60;90.40;;;;;;5028376;28;20048;-76
2024/02/04 11:48:55;;;;;;;5.50;2.97;;;6.70;92.30;;;;;;5026889;27;20055;-76
2024/02/04 11:51:24;;;;;;;7.10;3.58;;;6.80;92.40;;;;;;5028948;28;20384;-75
2024/02/04 11:53:53;;;;;;;6.35;3.20;;;6.90;91.90;;;;;;5027750;28;20057;-76
2024/02/04 11:56:19;;;;;;;3.22;2.80;;;6.90;90.30;;;;;;5028141;28;20479;-75
2024/02/04 11:58:45;;;;;;;7.18;3.00;;;6.90;90.70;;;;;;5028231;28;20494;-75
2024/02/04 12:01:11;;;;;;;5.32;2.88;;;6.80;91.90;;;;;;5028084;28;20062;-76
2024/02/04 12:03:37;;;;;;;7.97;2.65;;;6.80;93.10;;;;;;5020748;28;20463;-76
2024/02/04 12:06:04;;;;;;;8.82;3.05;;;6.70;93.30;;;;;;5025072;27;20030;-75
2024/02/04 12:08:32;;;;;;;7.30;3.63;;;6.70;97.90;;;;;;5024841;28;20021;-76
2024/02/04 12:11:00;;;;;;;6.63;3.80;;;6.60;99.90;;;;;;5028673;28;20026;-76
2024/02/04 12:13:27;;;;;;;5.55;3.22;;;6.40;99.90;;;;;;5024055;28;20046;-75
2024/02/04 12:15:53;;;;;;;13.57;5.53;;;6.40;99.90;;;;;;5018825;28;20056;-76
2024/02/04 12:18:21;;;;;;;29.10;10.48;;;6.20;99.90;;;;;;5019730;28;20482;-75
2024/02/04 12:20:49;;;;;;;7.38;4.15;;;6.20;99.90;;;;;;5019013;28;20479;-76
2024/02/04 12:23:15;;;;;;;4.63;3.40;;;6.20;99.90;;;;;;5019271;28;20072;-78
2024/02/04 12:25:41;;;;;;;6.30;2.70;;;6.00;99.90;;;;;;5028265;28;20502;-76
2024/02/04 12:28:08;;;;;;;4.55;3.47;;;6.00;99.90;;;;;;5023437;28;20021;-77
2024/02/04 12:30:33;;;;;;;8.27;3.53;;;5.80;99.90;;;;;;5027899;28;20713;-77
2024/02/04 12:33:04;;;;;;;5.88;3.20;;;5.70;99.90;;;;;;5027932;28;20038;-76
2024/02/04 12:35:31;;;;;;;6.75;3.47;;;5.50;99.90;;;;;;5014092;28;20043;-76
2024/02/04 12:37:58;;;;;;;8.63;3.65;;;5.40;99.90;;;;;;5028800;28;20032;-75
2024/02/04 12:40:25;;;;;;;7.78;3.60;;;5.40;99.90;;;;;;5027588;28;20022;-76
2024/02/04 12:42:58;;;;;;;7.53;3.58;;;5.30;99.90;;;;;;5029514;28;20440;-76
2024/02/04 12:45:24;;;;;;;5.57;3.75;;;5.20;99.90;;;;;;5029337;28;20032;-76
2024/02/04 12:47:51;;;;;;;7.05;4.60;;;5.10;99.90;;;;;;5029044;28;20013;-76
2024/02/04 12:50:18;;;;;;;9.65;4.20;;;5.10;99.90;;;;;;5028940;28;20033;-75
2024/02/04 12:52:44;;;;;;;4.72;3.55;;;5.10;99.90;;;;;;5027649;28;20046;-75